createdAt,value
2018-09-25T00:02:49.290Z,10.51
2018-09-25T00:07:57.902Z,10.69
2018-09-25T00:13:06.556Z,10.82
2018-09-25T00:18:15.226Z,10.96
2018-09-25T00:23:23.806Z,11.02
2018-09-25T00:28:32.482Z,10.80
2018-09-25T00:33:40.986Z,10.78
2018-09-25T00:38:49.688Z,10.88
2018-09-25T00:43:58.391Z,10.99
2018-09-25T00:49:07.215Z,11.12
2018-09-25T00:54:15.952Z,11.20
2018-09-25T00:59:24.549Z,11.23
2018-09-25T01:04:33.323Z,11.12
2018-09-25T01:09:41.998Z,10.97
2018-09-25T01:14:50.731Z,10.93
2018-09-25T01:19:59.641Z,10.77
2018-09-25T01:25:08.393Z,10.60
2018-09-25T01:30:17.202Z,10.51
2018-09-25T01:35:25.773Z,10.47
2018-09-25T01:40:34.675Z,10.42
2018-09-25T01:45:43.406Z,10.33
2018-09-25T01:50:52.119Z,10.21
2018-09-25T01:56:00.851Z,10.12
2018-09-25T02:01:09.450Z,10.04
2018-09-25T02:06:18.035Z,9.97
2018-09-25T02:11:26.596Z,9.93
2018-09-25T02:16:35.350Z,9.84
2018-09-25T02:21:43.991Z,9.83
2018-09-25T02:26:52.716Z,9.83
2018-09-25T02:32:01.360Z,9.95
2018-09-25T02:37:10.187Z,10.02
2018-09-25T02:42:18.930Z,10.03
2018-09-25T02:47:27.671Z,10.05
2018-09-25T02:52:36.417Z,9.92
2018-09-25T02:57:44.987Z,9.76
2018-09-25T03:02:53.657Z,9.56
2018-09-25T03:08:02.176Z,9.27
2018-09-25T03:13:10.866Z,9.11
2018-09-25T03:18:19.646Z,9.17
2018-09-25T03:23:28.330Z,9.31
2018-09-25T03:28:36.913Z,9.37
2018-09-25T03:33:45.459Z,9.41
2018-09-25T03:38:54.116Z,9.53
2018-09-25T03:44:02.738Z,9.62
2018-09-25T03:49:11.481Z,9.81
2018-09-25T03:54:20.174Z,9.98
2018-09-25T03:59:29.618Z,10.09
2018-09-25T04:04:38.200Z,10.17
2018-09-25T04:09:47.042Z,10.21
2018-09-25T04:14:55.598Z,10.25
2018-09-25T04:20:04.345Z,10.30
2018-09-25T04:25:13.142Z,10.23
2018-09-25T04:30:21.828Z,10.12
2018-09-25T04:35:30.431Z,10.09
2018-09-25T04:40:39.288Z,10.04
2018-09-25T04:45:48.115Z,10.04
2018-09-25T04:50:57.160Z,10.12
2018-09-25T04:56:05.898Z,10.20
2018-09-25T05:01:14.578Z,10.21
2018-09-25T05:06:23.258Z,10.10
2018-09-25T05:11:32.067Z,10.01
2018-09-25T05:16:40.775Z,9.63
2018-09-25T05:21:49.536Z,9.75
2018-09-25T05:26:58.211Z,9.81
2018-09-25T05:32:07.023Z,9.58
2018-09-25T05:37:15.590Z,9.45
2018-09-25T05:42:24.240Z,9.57
2018-09-25T05:47:32.868Z,9.57
2018-09-25T05:52:41.891Z,9.65
2018-09-25T05:57:50.545Z,9.72
2018-09-25T06:08:44.406Z,9.91
2018-09-25T06:13:53.170Z,10.01
2018-09-25T06:19:01.862Z,10.12
2018-09-25T06:24:10.778Z,10.22
2018-09-25T06:29:19.615Z,10.35
2018-09-25T06:34:28.309Z,10.48
2018-09-25T06:39:37.083Z,10.63
2018-09-25T06:44:45.896Z,10.81
2018-09-25T06:49:54.649Z,11.02
2018-09-25T06:55:03.345Z,11.14
2018-09-25T07:00:12.084Z,11.18
2018-09-25T07:05:20.913Z,11.23
2018-09-25T07:10:29.766Z,11.31
2018-09-25T07:15:38.263Z,11.43
2018-09-25T07:20:47.064Z,11.55
2018-09-25T07:25:55.605Z,11.68
2018-09-25T07:31:04.530Z,11.79
2018-09-25T07:36:13.220Z,11.95
2018-09-25T07:41:21.830Z,12.05
2018-09-25T07:46:30.641Z,12.20
2018-09-25T07:51:39.487Z,12.36
2018-09-25T07:56:48.194Z,12.52
2018-09-25T08:01:56.781Z,12.68
2018-09-25T08:07:05.364Z,12.84
2018-09-25T08:12:14.073Z,12.94
2018-09-25T08:17:22.903Z,13.14
2018-09-25T08:22:31.479Z,13.34
2018-09-25T08:27:40.320Z,13.53
2018-09-25T08:32:49.102Z,13.73
2018-09-25T08:37:57.805Z,13.89
2018-09-25T08:43:06.530Z,14.06
2018-09-25T08:48:15.279Z,14.16
2018-09-25T08:53:23.961Z,14.32
2018-09-25T08:58:32.671Z,14.48
2018-09-25T09:03:41.479Z,14.62
2018-09-25T09:08:50.187Z,14.75
2018-09-25T09:13:58.798Z,14.78
2018-09-25T09:19:07.505Z,14.78
2018-09-25T09:24:16.381Z,14.89
2018-09-25T09:29:25.173Z,15.01
2018-09-25T09:34:33.955Z,15.18
2018-09-25T09:39:42.707Z,15.36
2018-09-25T09:44:51.436Z,15.52
2018-09-25T09:50:00.159Z,15.63
2018-09-25T09:55:08.852Z,15.79
2018-09-25T10:00:17.464Z,15.97
2018-09-25T10:05:26.219Z,16.00
2018-09-25T10:10:35.050Z,16.10
2018-09-25T10:15:43.762Z,16.06
2018-09-25T10:20:52.464Z,16.35
2018-09-25T10:26:01.355Z,16.84
2018-09-25T10:31:10.144Z,16.97
2018-09-25T10:36:20.007Z,16.97
2018-09-25T10:41:29.844Z,17.14
2018-09-25T10:46:39.175Z,17.28
2018-09-25T10:51:48.198Z,17.74
2018-09-25T10:56:57.981Z,18.31
2018-09-25T11:02:07.303Z,18.72
2018-09-25T11:07:16.208Z,18.57
2018-09-25T11:12:25.572Z,18.44
2018-09-25T11:17:35.209Z,19.08
2018-09-25T11:22:44.656Z,19.22
2018-09-25T11:27:54.031Z,19.50
2018-09-25T11:33:02.943Z,19.27
2018-09-25T11:38:12.196Z,18.68
2018-09-25T11:43:21.543Z,18.31
2018-09-25T11:48:30.262Z,18.18
2018-09-25T11:53:39.811Z,18.40
2018-09-25T11:58:48.698Z,18.57
2018-09-25T12:03:57.308Z,18.13
2018-09-25T12:09:06.926Z,18.05
2018-09-25T12:14:16.337Z,18.08
2018-09-25T12:19:25.956Z,18.41
2018-09-25T12:24:35.229Z,18.84
2018-09-25T12:29:44.539Z,19.42
2018-09-25T12:34:53.232Z,19.97
2018-09-25T12:40:01.919Z,20.33
2018-09-25T12:45:10.762Z,20.32
2018-09-25T12:58:23.723Z,18.39
2018-09-25T13:03:32.785Z,18.29
2018-09-25T13:08:41.991Z,18.59
2018-09-25T13:13:51.433Z,18.98
2018-09-25T13:19:01.901Z,19.16
2018-09-25T13:24:10.579Z,19.20
2018-09-25T13:29:19.288Z,19.22
2018-09-25T13:34:27.943Z,19.16
2018-09-25T13:39:36.770Z,19.06
2018-09-25T13:44:45.372Z,19.52
2018-09-25T13:49:54.113Z,19.50
2018-09-25T13:55:02.701Z,19.37
2018-09-25T14:00:11.642Z,18.86
2018-09-25T14:05:20.231Z,18.79
2018-09-25T14:10:28.904Z,18.90
2018-09-25T14:15:37.530Z,19.09
2018-09-25T14:20:46.190Z,19.12
2018-09-25T14:25:54.820Z,19.18
2018-09-25T14:31:03.534Z,19.09
2018-09-25T14:36:12.363Z,19.28
2018-09-25T14:41:20.911Z,19.53
2018-09-25T14:46:29.670Z,19.84
2018-09-25T14:51:38.427Z,19.95
2018-09-25T14:56:47.224Z,20.09
2018-09-25T15:01:55.934Z,19.83
2018-09-25T15:07:04.588Z,19.25
2018-09-25T15:12:13.292Z,18.86
2018-09-25T15:17:22.248Z,18.62
2018-09-25T15:22:30.938Z,18.33
2018-09-25T15:27:40.029Z,18.16
2018-09-25T15:32:48.629Z,17.97
2018-09-25T15:37:57.325Z,17.84
2018-09-25T15:43:06.203Z,17.89
2018-09-25T15:48:15.000Z,17.77
2018-09-25T15:53:23.700Z,17.72
2018-09-25T15:58:32.351Z,17.65
2018-09-25T16:03:40.915Z,17.56
2018-09-25T16:08:49.484Z,17.44
2018-09-25T16:13:58.140Z,17.29
2018-09-25T16:19:06.835Z,17.15
2018-09-25T16:24:15.700Z,17.02
2018-09-25T16:29:24.519Z,16.90
2018-09-25T16:34:33.115Z,16.90
2018-09-25T16:39:41.831Z,16.97
2018-09-25T16:44:50.362Z,16.96
2018-09-25T16:49:59.256Z,16.91
2018-09-25T16:55:08.080Z,16.78
2018-09-25T17:00:16.898Z,16.66
2018-09-25T17:05:25.499Z,16.55
2018-09-25T17:10:34.069Z,16.38
2018-09-25T17:15:42.599Z,16.11
2018-09-25T17:20:51.145Z,15.77
2018-09-25T17:25:59.781Z,15.62
2018-09-25T17:31:08.587Z,15.48
2018-09-25T17:36:17.666Z,15.35
2018-09-25T17:41:27.676Z,15.22
2018-09-25T17:46:36.523Z,14.94
2018-09-25T17:51:46.533Z,14.67
2018-09-25T17:56:56.228Z,14.62
2018-09-25T18:02:07.597Z,14.59
2018-09-25T18:07:17.481Z,14.57
2018-09-25T18:12:27.197Z,14.56
2018-09-25T18:17:36.948Z,14.51
2018-09-25T18:22:46.458Z,14.45
2018-09-25T18:27:57.247Z,14.32
2018-09-25T18:33:07.427Z,14.23
2018-09-25T18:38:17.272Z,14.17
2018-09-25T18:43:26.866Z,14.12
2018-09-25T18:48:36.582Z,14.03
2018-09-25T18:53:46.213Z,13.97
2018-09-25T18:58:57.490Z,13.92
2018-09-25T19:04:07.406Z,13.83
2018-09-25T19:09:16.498Z,13.74
2018-09-25T19:14:25.423Z,13.60
2018-09-25T19:19:34.018Z,13.49
2018-09-25T19:24:42.879Z,13.40
2018-09-25T19:29:52.736Z,13.31
2018-09-25T19:35:03.890Z,13.21
2018-09-25T19:40:15.016Z,13.11
2018-09-25T19:45:25.952Z,12.89
2018-09-25T19:50:35.939Z,12.95
2018-09-25T19:55:47.610Z,12.83
2018-09-25T20:00:59.568Z,12.72
2018-09-25T20:06:10.481Z,12.67
2018-09-25T20:11:19.472Z,12.65
2018-09-25T20:16:30.158Z,12.64
2018-09-25T20:21:38.882Z,12.62
2018-09-25T20:26:47.773Z,12.60
2018-09-25T20:31:56.335Z,12.52
2018-09-25T20:37:05.541Z,12.54
2018-09-25T20:42:15.253Z,12.48
2018-09-25T20:47:24.978Z,12.39
2018-09-25T20:52:33.974Z,12.37
2018-09-25T20:57:42.545Z,12.40
2018-09-25T21:02:51.224Z,12.38
2018-09-25T21:07:59.859Z,12.35
2018-09-25T21:13:08.433Z,12.27
2018-09-25T21:18:17.140Z,12.26
2018-09-25T21:23:25.961Z,12.24
2018-09-25T21:28:34.562Z,12.20
2018-09-25T21:33:43.303Z,12.20
2018-09-25T21:38:52.040Z,12.18
2018-09-25T21:44:00.711Z,12.11
2018-09-25T21:49:09.432Z,12.01
2018-09-25T21:54:17.963Z,11.95
2018-09-25T21:59:26.726Z,11.96
2018-09-25T22:04:35.599Z,11.95
2018-09-25T22:09:44.351Z,11.92
2018-09-25T22:14:53.159Z,11.90
2018-09-25T22:20:01.970Z,11.89
2018-09-25T22:25:10.769Z,11.90
2018-09-25T22:30:19.559Z,11.90
2018-09-25T22:35:28.344Z,11.91
2018-09-25T22:40:37.027Z,11.91
2018-09-25T22:45:45.756Z,11.90
2018-09-25T22:50:54.429Z,11.84
2018-09-25T22:56:03.195Z,11.77
2018-09-25T23:01:12.081Z,11.74
2018-09-25T23:06:20.644Z,11.72
2018-09-25T23:11:29.348Z,11.74
2018-09-25T23:16:37.911Z,11.69
2018-09-25T23:21:46.507Z,11.64
2018-09-25T23:26:55.091Z,11.63
2018-09-25T23:32:03.931Z,11.66
2018-09-25T23:37:12.579Z,11.69
2018-09-25T23:42:25.280Z,11.71
2018-09-25T23:47:34.135Z,11.69
2018-09-25T23:52:41.247Z,11.67
2018-09-25T23:57:51.875Z,11.61
